createdAt,value
2024-02-02T00:01:19.547Z,15.30
2024-02-02T00:03:54.852Z,14.60
2024-02-02T00:06:24.180Z,14.20
2024-02-02T00:08:53.772Z,13.70
2024-02-02T00:11:22.422Z,15.30
2024-02-02T00:13:51.505Z,14.90
2024-02-02T00:16:20.940Z,15.00
2024-02-02T00:18:52.510Z,16.30
2024-02-02T00:21:23.224Z,17.03
2024-02-02T00:23:54.835Z,16.60
2024-02-02T00:26:26.392Z,17.40
2024-02-02T00:28:56.219Z,17.00
2024-02-02T00:31:27.675Z,17.17
2024-02-02T00:33:58.322Z,15.83
2024-02-02T00:36:29.285Z,16.10
2024-02-02T00:38:58.233Z,14.53
2024-02-02T00:41:29.380Z,17.57
2024-02-02T00:43:58.267Z,16.90
2024-02-02T00:46:29.741Z,17.33
2024-02-02T00:49:02.795Z,16.43
2024-02-02T00:51:31.919Z,16.80
2024-02-02T00:54:01.411Z,15.30
2024-02-02T00:56:30.846Z,16.30
2024-02-02T00:59:00.394Z,15.90
2024-02-02T01:01:29.624Z,16.23
2024-02-02T01:04:00.392Z,14.17
2024-02-02T01:06:29.521Z,14.17
2024-02-02T01:08:58.632Z,16.00
2024-02-02T01:11:32.557Z,16.03
2024-02-02T01:14:03.029Z,15.17
2024-02-02T01:16:33.822Z,16.67
2024-02-02T01:19:04.710Z,16.90
2024-02-02T01:21:34.819Z,16.97
2024-02-02T01:24:04.843Z,16.47
2024-02-02T01:26:34.424Z,15.30
2024-02-02T01:29:06.531Z,17.57
2024-02-02T01:31:36.111Z,18.00
2024-02-02T01:34:08.155Z,18.87
2024-02-02T01:36:38.312Z,17.20
2024-02-02T01:39:11.966Z,16.17
2024-02-02T01:41:40.952Z,15.40
2024-02-02T01:44:11.974Z,15.47
2024-02-02T01:46:40.875Z,15.17
2024-02-02T01:49:11.989Z,14.97
2024-02-02T01:51:40.738Z,16.40
2024-02-02T01:54:10.066Z,15.97
2024-02-02T01:56:40.216Z,16.57
2024-02-02T01:59:10.966Z,17.20
2024-02-02T02:01:41.532Z,16.87
2024-02-02T02:04:11.732Z,15.77
2024-02-02T02:06:42.188Z,16.20
2024-02-02T02:09:12.447Z,16.23
2024-02-02T02:11:42.707Z,15.60
2024-02-02T02:14:12.232Z,13.97
2024-02-02T02:16:41.925Z,14.80
2024-02-02T02:19:16.945Z,15.30
2024-02-02T02:21:48.343Z,15.40
2024-02-02T02:24:17.452Z,14.13
2024-02-02T02:26:48.393Z,14.60
2024-02-02T02:29:19.515Z,15.43
2024-02-02T02:31:56.405Z,14.30
2024-02-02T02:34:28.755Z,13.90
2024-02-02T02:37:00.025Z,14.70
2024-02-02T02:39:30.146Z,13.37
2024-02-02T02:41:59.022Z,13.87
2024-02-02T02:44:27.937Z,12.23
2024-02-02T02:46:56.796Z,13.13
2024-02-02T02:49:26.876Z,12.83
2024-02-02T02:51:55.928Z,13.33
2024-02-02T02:54:29.458Z,14.20
2024-02-02T02:56:59.237Z,13.07
2024-02-02T02:59:30.196Z,12.47
2024-02-02T03:02:00.612Z,12.87
2024-02-02T03:04:29.475Z,12.90
2024-02-02T03:06:58.489Z,12.97
2024-02-02T03:09:31.595Z,12.37
2024-02-02T03:12:02.165Z,12.50
2024-02-02T03:14:32.454Z,12.83
2024-02-02T03:17:01.028Z,12.50
2024-02-02T03:19:31.213Z,14.13
2024-02-02T03:22:02.971Z,14.30
2024-02-02T03:24:34.233Z,13.97
2024-02-02T03:27:04.450Z,13.60
2024-02-02T03:29:34.624Z,13.50
2024-02-02T03:32:03.931Z,12.93
2024-02-02T03:34:33.102Z,13.67
2024-02-02T03:37:03.586Z,13.00
2024-02-02T03:39:35.893Z,13.47
2024-02-02T03:42:06.803Z,13.10
2024-02-02T03:44:39.917Z,12.80
2024-02-02T03:47:09.043Z,14.30
2024-02-02T03:49:39.001Z,12.50
2024-02-02T03:52:08.567Z,12.60
2024-02-02T03:54:39.294Z,12.57
2024-02-02T03:57:08.754Z,13.10
2024-02-02T03:59:38.484Z,13.47
2024-02-02T04:02:08.367Z,13.67
2024-02-02T04:04:38.395Z,11.37
2024-02-02T04:07:10.942Z,11.93
2024-02-02T04:09:43.399Z,11.83
2024-02-02T04:12:13.850Z,11.80
2024-02-02T04:14:44.680Z,12.00
2024-02-02T04:17:17.252Z,13.40
2024-02-02T04:19:47.165Z,11.30
2024-02-02T04:22:18.613Z,12.20
2024-02-02T04:24:48.990Z,12.03
2024-02-02T04:27:21.513Z,11.93
2024-02-02T04:29:51.675Z,11.90
2024-02-02T04:32:23.773Z,12.60
2024-02-02T04:34:54.539Z,12.70
2024-02-02T04:37:24.972Z,12.20
2024-02-02T04:39:55.896Z,12.70
2024-02-02T04:42:24.563Z,12.23
2024-02-02T04:44:53.247Z,11.33
2024-02-02T04:47:25.346Z,11.50
2024-02-02T04:49:55.307Z,11.93
2024-02-02T04:52:23.973Z,12.23
2024-02-02T04:54:55.362Z,11.33
2024-02-02T04:57:25.161Z,11.20
2024-02-02T04:59:56.507Z,13.83
2024-02-02T05:02:27.465Z,12.27
2024-02-02T05:04:56.531Z,12.63
2024-02-02T05:07:28.429Z,13.20
2024-02-02T05:09:57.320Z,12.77
2024-02-02T05:12:29.218Z,12.23
2024-02-02T05:14:59.073Z,13.10
2024-02-02T05:17:29.280Z,12.00
2024-02-02T05:19:59.612Z,13.83
2024-02-02T05:22:30.550Z,13.30
2024-02-02T05:24:59.421Z,13.73
2024-02-02T05:27:29.630Z,12.93
2024-02-02T05:30:01.059Z,13.57
2024-02-02T05:32:29.623Z,13.17
2024-02-02T05:34:58.650Z,13.70
2024-02-02T05:37:31.472Z,13.40
2024-02-02T05:40:00.307Z,15.00
2024-02-02T05:42:33.271Z,14.30
2024-02-02T05:45:02.493Z,13.70
2024-02-02T05:47:34.330Z,14.57
2024-02-02T05:50:06.874Z,14.30
2024-02-02T05:52:38.162Z,14.50
2024-02-02T05:55:10.436Z,15.97
2024-02-02T05:57:41.341Z,16.20
2024-02-02T06:00:12.209Z,16.33
2024-02-02T06:02:40.915Z,13.87
2024-02-02T06:05:11.559Z,15.60
2024-02-02T06:07:40.876Z,16.30
2024-02-02T06:10:12.313Z,18.13
2024-02-02T06:12:42.742Z,19.37
2024-02-02T06:15:12.160Z,17.53
2024-02-02T06:17:40.612Z,17.50
2024-02-02T06:20:10.264Z,15.27
2024-02-02T06:22:39.169Z,16.53
2024-02-02T06:25:12.728Z,15.73
2024-02-02T06:27:44.678Z,15.47
2024-02-02T06:30:15.729Z,15.13
2024-02-02T06:32:48.320Z,14.60
2024-02-02T06:35:19.592Z,17.53
2024-02-02T06:37:49.090Z,14.30
2024-02-02T06:40:20.217Z,14.50
2024-02-02T06:43:00.699Z,14.63
2024-02-02T06:45:31.267Z,13.50
2024-02-02T06:48:02.457Z,14.60
2024-02-02T06:50:35.972Z,14.30
2024-02-02T06:53:07.111Z,12.40
2024-02-02T06:55:36.093Z,13.77
2024-02-02T06:58:16.329Z,12.00
2024-02-02T07:00:48.728Z,13.10
2024-02-02T07:03:20.354Z,13.33
2024-02-02T07:05:49.438Z,11.90
2024-02-02T07:08:18.348Z,12.57
2024-02-02T07:10:50.674Z,11.63
2024-02-02T07:13:23.855Z,12.00
2024-02-02T07:15:54.829Z,12.27
2024-02-02T07:18:39.560Z,13.17
2024-02-02T07:21:10.139Z,11.50
2024-02-02T07:23:41.992Z,12.53
2024-02-02T07:26:28.973Z,10.40
2024-02-02T07:28:59.914Z,11.67
2024-02-02T07:31:51.615Z,11.80
2024-02-02T07:34:44.299Z,11.27
2024-02-02T07:37:37.353Z,11.37
2024-02-02T07:40:42.277Z,11.00
2024-02-02T07:43:12.417Z,10.50
2024-02-02T07:45:42.543Z,11.00
2024-02-02T07:48:11.342Z,11.00
2024-02-02T07:50:44.225Z,9.20
2024-02-02T07:53:13.571Z,9.63
2024-02-02T07:55:42.973Z,9.60
2024-02-02T07:58:11.516Z,9.67
2024-02-02T08:00:41.375Z,9.37
2024-02-02T08:03:13.865Z,9.40
2024-02-02T08:05:46.349Z,9.30
2024-02-02T08:08:17.376Z,9.37
2024-02-02T08:10:49.139Z,10.70
2024-02-02T08:13:20.086Z,9.20
2024-02-02T08:15:50.851Z,9.97
2024-02-02T08:18:21.141Z,9.00
2024-02-02T08:20:51.978Z,10.00
2024-02-02T08:23:20.721Z,9.70
2024-02-02T08:25:54.209Z,9.43
2024-02-02T08:28:22.956Z,8.90
2024-02-02T08:30:56.265Z,9.37
2024-02-02T08:33:25.987Z,8.80
2024-02-02T08:35:55.648Z,8.13
2024-02-02T08:38:27.023Z,7.70
2024-02-02T08:40:56.337Z,8.37
2024-02-02T08:43:26.662Z,8.37
2024-02-02T08:46:11.635Z,9.30
2024-02-02T08:48:47.368Z,7.87
2024-02-02T08:51:54.161Z,8.30
2024-02-02T08:54:45.794Z,8.43
2024-02-02T08:57:38.863Z,9.10
2024-02-02T09:00:17.316Z,8.10
2024-02-02T09:03:00.318Z,8.17
2024-02-02T09:05:53.144Z,8.50
2024-02-02T09:08:35.412Z,7.53
2024-02-02T09:11:23.068Z,6.50
2024-02-02T09:14:19.366Z,7.37
2024-02-02T09:16:53.741Z,7.07
2024-02-02T09:19:32.785Z,6.20
2024-02-02T09:22:04.315Z,8.00
2024-02-02T09:24:45.246Z,6.80
2024-02-02T09:27:24.206Z,7.10
2024-02-02T09:29:55.395Z,6.97
2024-02-02T09:32:26.018Z,6.93
2024-02-02T09:35:02.611Z,6.50
2024-02-02T09:37:42.117Z,8.30
2024-02-02T09:40:42.380Z,6.37
2024-02-02T09:43:17.857Z,6.60
2024-02-02T09:45:59.568Z,7.00
2024-02-02T09:48:42.413Z,6.23
2024-02-02T09:51:23.985Z,7.33
2024-02-02T09:54:17.594Z,7.77
2024-02-02T09:56:58.649Z,6.90
2024-02-02T09:59:35.773Z,7.50
2024-02-02T10:02:26.918Z,6.93
2024-02-02T10:05:07.952Z,7.07
2024-02-02T10:07:51.733Z,7.30
2024-02-02T10:10:51.394Z,6.53
2024-02-02T10:13:33.993Z,6.80
2024-02-02T10:16:21.537Z,6.10
2024-02-02T10:19:23.151Z,6.40
2024-02-02T10:22:04.399Z,7.00
2024-02-02T10:24:46.823Z,7.17
2024-02-02T10:27:36.415Z,8.67
2024-02-02T10:30:22.930Z,8.40
2024-02-02T10:33:09.649Z,7.10
2024-02-02T10:35:49.560Z,6.07
2024-02-02T10:38:30.079Z,7.50
2024-02-02T10:41:08.308Z,7.70
2024-02-02T10:43:47.149Z,7.70
2024-02-02T10:46:26.597Z,6.80
2024-02-02T10:49:11.107Z,6.87
2024-02-02T10:51:53.629Z,7.10
2024-02-02T10:54:40.401Z,6.50
2024-02-02T10:57:23.945Z,5.40
2024-02-02T11:00:16.888Z,4.57
2024-02-02T11:02:59.972Z,5.03
2024-02-02T11:05:39.164Z,3.70
2024-02-02T11:08:13.276Z,5.30
2024-02-02T11:10:50.782Z,5.53
2024-02-02T11:13:34.789Z,4.23
2024-02-02T11:16:12.870Z,4.37
2024-02-02T11:19:07.908Z,4.10
2024-02-02T11:21:51.460Z,4.40
2024-02-02T11:24:26.460Z,5.30
2024-02-02T11:27:00.870Z,3.90
2024-02-02T11:29:41.857Z,5.20
2024-02-02T11:32:28.190Z,4.97
2024-02-02T11:35:11.170Z,5.10
2024-02-02T11:37:54.999Z,5.10
2024-02-02T11:40:28.582Z,5.47
2024-02-02T11:43:00.842Z,5.47
2024-02-02T11:45:35.772Z,5.63
2024-02-02T11:48:10.076Z,4.60
2024-02-02T11:50:44.318Z,5.10
2024-02-02T11:53:25.427Z,4.53
2024-02-02T11:56:05.525Z,4.30
2024-02-02T11:58:37.061Z,4.00
2024-02-02T12:01:39.836Z,4.83
2024-02-02T12:04:31.133Z,4.40
2024-02-02T12:07:14.869Z,4.63
2024-02-02T12:09:47.258Z,6.30
2024-02-02T12:12:21.557Z,4.30
2024-02-02T12:14:54.642Z,3.63
2024-02-02T12:17:24.824Z,3.90
2024-02-02T12:19:53.978Z,3.53
2024-02-02T12:22:23.176Z,3.07
2024-02-02T12:24:52.251Z,3.20
2024-02-02T12:27:21.016Z,3.23
2024-02-02T12:29:49.462Z,3.40
2024-02-02T12:32:19.314Z,3.60
2024-02-02T12:34:49.677Z,4.00
2024-02-02T12:37:18.799Z,4.20
2024-02-02T12:39:50.925Z,3.43
2024-02-02T12:42:19.408Z,3.60
2024-02-02T12:44:47.879Z,3.73
2024-02-02T12:47:26.404Z,3.20
2024-02-02T12:49:56.616Z,4.10
2024-02-02T12:52:28.690Z,3.23
2024-02-02T12:54:57.723Z,4.30
2024-02-02T12:57:27.035Z,3.27
2024-02-02T12:59:56.130Z,3.17
2024-02-02T13:02:27.525Z,3.17
2024-02-02T13:04:58.554Z,2.73
2024-02-02T13:07:29.823Z,3.80
2024-02-02T13:09:59.659Z,2.83
2024-02-02T13:12:30.207Z,3.33
2024-02-02T13:15:11.609Z,3.10
2024-02-02T13:17:40.924Z,2.80
2024-02-02T13:20:23.943Z,3.50
2024-02-02T13:22:55.392Z,2.70
2024-02-02T13:25:26.376Z,2.83
2024-02-02T13:27:56.069Z,2.40
2024-02-02T13:30:28.582Z,2.73
2024-02-02T13:32:58.585Z,3.10
2024-02-02T13:35:32.729Z,2.80
2024-02-02T13:38:03.856Z,2.47
2024-02-02T13:40:33.211Z,2.43
2024-02-02T13:43:02.623Z,1.90
2024-02-02T13:45:36.028Z,2.30
2024-02-02T13:48:13.141Z,2.13
2024-02-02T13:50:53.512Z,1.90
2024-02-02T13:53:28.137Z,1.70
2024-02-02T13:55:58.667Z,1.67
2024-02-02T13:58:27.254Z,2.00
2024-02-02T14:00:56.476Z,1.87
2024-02-02T14:03:26.850Z,1.93
2024-02-02T14:05:58.552Z,1.70
2024-02-02T14:08:28.755Z,1.80
2024-02-02T14:10:57.698Z,1.90
2024-02-02T14:13:26.746Z,1.60
2024-02-02T14:15:56.584Z,1.60
2024-02-02T14:18:28.452Z,1.50
2024-02-02T14:20:58.599Z,1.77
2024-02-02T14:23:33.403Z,1.60
2024-02-02T14:26:09.096Z,1.70
2024-02-02T14:28:38.514Z,2.33
2024-02-02T14:31:08.208Z,1.50
2024-02-02T14:33:37.246Z,1.40
2024-02-02T14:36:09.706Z,1.60
2024-02-02T14:38:45.696Z,1.50
2024-02-02T14:41:16.851Z,1.53
2024-02-02T14:43:46.901Z,1.50
2024-02-02T14:46:29.304Z,1.73
2024-02-02T14:48:57.646Z,1.60
2024-02-02T14:51:28.140Z,1.77
2024-02-02T14:53:57.695Z,2.07
2024-02-02T14:56:27.852Z,1.93
2024-02-02T14:59:09.936Z,1.90
2024-02-02T15:01:40.158Z,1.90
2024-02-02T15:04:11.952Z,1.80
2024-02-02T15:06:43.254Z,1.93
2024-02-02T15:09:15.432Z,1.83
2024-02-02T15:11:46.037Z,1.90
2024-02-02T15:14:17.570Z,1.90
2024-02-02T15:16:47.349Z,1.90
2024-02-02T15:19:18.352Z,1.60
2024-02-02T15:21:50.796Z,1.80
2024-02-02T15:24:21.041Z,1.80
2024-02-02T15:26:51.329Z,1.80
2024-02-02T15:29:21.776Z,1.80
2024-02-02T15:31:52.998Z,2.00
2024-02-02T15:34:21.695Z,2.40
2024-02-02T15:36:56.496Z,2.20
2024-02-02T15:39:31.078Z,1.70
2024-02-02T15:42:08.033Z,1.80
2024-02-02T15:44:37.656Z,1.70
2024-02-02T15:47:10.021Z,2.13
2024-02-02T15:49:39.346Z,1.97
2024-02-02T15:52:09.572Z,2.10
2024-02-02T15:54:38.466Z,1.77
2024-02-02T15:57:07.447Z,1.80
2024-02-02T15:59:36.261Z,2.00
2024-02-02T16:02:05.756Z,1.63
2024-02-02T16:04:35.199Z,1.50
2024-02-02T16:07:06.897Z,1.80
2024-02-02T16:09:48.974Z,1.80
2024-02-02T16:12:17.775Z,1.97
2024-02-02T16:14:46.421Z,2.10
2024-02-02T16:17:15.170Z,1.80
2024-02-02T16:19:43.949Z,1.80
2024-02-02T16:22:12.500Z,1.50
2024-02-02T16:24:42.355Z,2.07
2024-02-02T16:27:11.288Z,2.57
2024-02-02T16:29:40.604Z,1.90
2024-02-02T16:32:11.016Z,1.70
2024-02-02T16:34:40.117Z,1.90
2024-02-02T16:37:12.112Z,1.60
2024-02-02T16:39:45.888Z,1.87
2024-02-02T16:42:17.441Z,1.53
2024-02-02T16:44:46.933Z,2.00
2024-02-02T16:47:17.765Z,2.17
2024-02-02T16:49:48.952Z,1.80
2024-02-02T16:52:17.585Z,1.83
2024-02-02T16:54:48.729Z,2.00
2024-02-02T16:57:17.288Z,1.80
2024-02-02T16:59:46.227Z,1.77
2024-02-02T17:02:15.083Z,1.60
2024-02-02T17:04:47.218Z,1.90
2024-02-02T17:07:19.549Z,2.00
2024-02-02T17:09:51.428Z,1.80
2024-02-02T17:12:21.907Z,1.87
2024-02-02T17:14:51.360Z,1.70
2024-02-02T17:17:21.489Z,1.80
2024-02-02T17:19:50.574Z,2.50
2024-02-02T17:22:22.294Z,1.73
2024-02-02T17:24:54.366Z,1.57
2024-02-02T17:27:23.274Z,1.90
2024-02-02T17:29:51.912Z,2.00
2024-02-02T17:32:22.295Z,1.73
2024-02-02T17:34:51.067Z,1.83
2024-02-02T17:37:20.018Z,1.87
2024-02-02T17:39:52.226Z,1.73
2024-02-02T17:42:25.120Z,1.73
2024-02-02T17:44:55.424Z,1.80
2024-02-02T17:47:24.318Z,1.93
2024-02-02T17:49:56.746Z,1.80
2024-02-02T17:52:27.119Z,1.80
2024-02-02T17:54:55.838Z,2.03
2024-02-02T17:57:26.160Z,1.67
2024-02-02T18:00:00.355Z,9.80
2024-02-02T18:02:29.317Z,6.77
2024-02-02T18:04:58.527Z,7.67
2024-02-02T18:07:32.667Z,10.80
2024-02-02T18:10:13.990Z,3.00
2024-02-02T18:12:45.424Z,2.60
2024-02-02T18:15:14.073Z,2.20
2024-02-02T18:17:45.991Z,2.03
2024-02-02T18:20:15.196Z,1.80
2024-02-02T18:22:44.300Z,2.30
2024-02-02T18:25:17.211Z,2.83
2024-02-02T18:27:48.455Z,3.13
2024-02-02T18:30:17.397Z,2.10
2024-02-02T18:32:47.678Z,4.40
2024-02-02T18:35:18.063Z,2.27
2024-02-02T18:37:49.994Z,2.30
2024-02-02T18:40:22.460Z,2.30
2024-02-02T18:42:53.670Z,2.17
2024-02-02T18:45:22.620Z,1.83
2024-02-02T18:47:54.857Z,2.87
2024-02-02T18:50:23.792Z,2.40
2024-02-02T18:52:52.881Z,2.33
2024-02-02T18:55:40.195Z,2.20
2024-02-02T18:58:10.360Z,2.60
2024-02-02T19:00:44.332Z,2.60
2024-02-02T19:03:18.774Z,2.00
2024-02-02T19:05:48.689Z,2.20
2024-02-02T19:08:17.822Z,2.20
2024-02-02T19:10:46.573Z,1.97
2024-02-02T19:13:17.174Z,1.93
2024-02-02T19:15:46.269Z,2.00
2024-02-02T19:18:15.877Z,2.10
2024-02-02T19:20:49.479Z,1.80
2024-02-02T19:23:19.108Z,2.00
2024-02-02T19:25:48.768Z,2.03
2024-02-02T19:28:19.059Z,1.80
2024-02-02T19:30:48.975Z,2.30
2024-02-02T19:33:17.988Z,1.80
2024-02-02T19:35:48.837Z,1.80
2024-02-02T19:38:18.551Z,1.97
2024-02-02T19:40:46.990Z,2.10
2024-02-02T19:43:16.016Z,1.97
2024-02-02T19:45:50.489Z,2.40
2024-02-02T19:48:23.479Z,1.70
2024-02-02T19:50:52.238Z,2.00
2024-02-02T19:53:20.731Z,1.77
2024-02-02T19:55:49.402Z,2.10
2024-02-02T19:58:18.148Z,1.70
2024-02-02T20:00:47.932Z,2.00
2024-02-02T20:03:16.492Z,2.40
2024-02-02T20:05:45.453Z,1.73
2024-02-02T20:08:15.171Z,1.83
2024-02-02T20:10:44.720Z,1.87
2024-02-02T20:13:13.167Z,1.60
2024-02-02T20:15:44.298Z,1.60
2024-02-02T20:18:14.260Z,1.87
2024-02-02T20:20:43.643Z,1.80
2024-02-02T20:23:12.418Z,1.30
2024-02-02T20:25:43.769Z,1.80
2024-02-02T20:28:12.484Z,1.60
2024-02-02T20:30:41.222Z,1.50
2024-02-02T20:35:48.191Z,1.57
2024-02-02T20:38:17.722Z,1.67
2024-02-02T20:40:47.018Z,1.70
2024-02-02T20:43:15.894Z,1.53
2024-02-02T20:45:45.313Z,1.60
2024-02-02T20:48:14.478Z,1.90
2024-02-02T20:50:43.578Z,1.63
2024-02-02T20:53:13.636Z,2.00
2024-02-02T20:55:43.962Z,1.40
2024-02-02T20:58:12.492Z,2.40
2024-02-02T21:00:41.528Z,1.50
2024-02-02T21:03:11.675Z,1.47
2024-02-02T21:05:41.902Z,1.60
2024-02-02T21:08:10.423Z,1.50
2024-02-02T21:10:41.303Z,1.60
2024-02-02T21:13:10.375Z,1.60
2024-02-02T21:15:38.742Z,1.40
2024-02-02T21:18:09.263Z,1.90
2024-02-02T21:20:44.661Z,1.60
2024-02-02T21:23:13.613Z,1.80
2024-02-02T21:25:44.596Z,1.60
2024-02-02T21:28:15.313Z,1.73
2024-02-02T21:30:47.240Z,2.00
2024-02-02T21:33:19.974Z,1.80
2024-02-02T21:35:49.711Z,1.50
2024-02-02T21:38:19.140Z,1.47
2024-02-02T21:40:49.318Z,2.00
2024-02-02T21:43:18.809Z,1.60
2024-02-02T21:45:47.787Z,1.53
2024-02-02T21:48:16.469Z,1.40
2024-02-02T21:50:45.927Z,1.80
2024-02-02T21:53:18.622Z,1.30
2024-02-02T21:55:49.815Z,1.40
2024-02-02T21:58:18.929Z,1.83
2024-02-02T22:00:48.384Z,1.60
2024-02-02T22:03:17.023Z,1.57
2024-02-02T22:05:45.673Z,1.73
2024-02-02T22:08:14.358Z,1.43
2024-02-02T22:10:43.032Z,1.50
2024-02-02T22:13:13.407Z,1.47
2024-02-02T22:15:42.507Z,1.70
2024-02-02T22:18:11.196Z,1.40
2024-02-02T22:20:40.409Z,1.73
2024-02-02T22:23:08.778Z,1.53
2024-02-02T22:25:37.879Z,2.10
2024-02-02T22:28:07.375Z,1.70
2024-02-02T22:30:37.359Z,1.40
2024-02-02T22:33:06.529Z,1.40
2024-02-02T22:35:36.164Z,1.30
2024-02-02T22:38:04.914Z,1.20
2024-02-02T22:40:34.060Z,1.30
2024-02-02T22:43:02.646Z,1.57
2024-02-02T22:45:31.103Z,1.23
2024-02-02T22:48:00.917Z,1.50
2024-02-02T22:50:29.570Z,1.23
2024-02-02T22:52:58.485Z,1.20
2024-02-02T22:55:30.062Z,1.40
2024-02-02T22:57:58.854Z,1.20
2024-02-02T23:00:32.932Z,1.30
2024-02-02T23:03:03.354Z,1.40
2024-02-02T23:05:32.049Z,1.33
2024-02-02T23:08:00.599Z,1.40
2024-02-02T23:10:30.384Z,1.40
2024-02-02T23:12:58.957Z,1.30
2024-02-02T23:15:27.459Z,1.23
2024-02-02T23:17:56.586Z,1.30
2024-02-02T23:20:26.507Z,1.30
2024-02-02T23:22:55.310Z,1.47
2024-02-02T23:25:24.009Z,1.20
2024-02-02T23:27:54.096Z,1.30
2024-02-02T23:30:24.722Z,1.60
2024-02-02T23:32:53.652Z,1.53
2024-02-02T23:35:23.308Z,1.20
2024-02-02T23:37:54.951Z,1.60
2024-02-02T23:40:23.670Z,1.40
2024-02-02T23:42:52.489Z,1.40
2024-02-02T23:45:21.315Z,1.20
2024-02-02T23:47:55.047Z,1.33
2024-02-02T23:50:25.130Z,1.23
2024-02-02T23:52:55.036Z,1.47
2024-02-02T23:55:23.980Z,1.30
2024-02-02T23:57:52.579Z,1.30
